sensor_id;sensor_type;location;lat;lon;timestamp;temperature;humidity
33827;DHT22;20128;45.582;5.298;2023-08-20T00:00:49;29.40;51.60
33827;DHT22;20128;45.582;5.298;2023-08-20T00:03:15;29.40;51.60
33827;DHT22;20128;45.582;5.298;2023-08-20T00:05:41;29.40;51.40
33827;DHT22;20128;45.582;5.298;2023-08-20T00:08:06;29.40;51.40
33827;DHT22;20128;45.582;5.298;2023-08-20T00:10:32;29.40;51.60
33827;DHT22;20128;45.582;5.298;2023-08-20T00:12:59;29.40;51.70
33827;DHT22;20128;45.582;5.298;2023-08-20T00:15:24;29.40;51.80
33827;DHT22;20128;45.582;5.298;2023-08-20T00:17:53;29.30;51.70
33827;DHT22;20128;45.582;5.298;2023-08-20T00:20:19;29.30;51.90
33827;DHT22;20128;45.582;5.298;2023-08-20T00:22:47;29.20;52.00
33827;DHT22;20128;45.582;5.298;2023-08-20T00:25:13;29.20;52.00
33827;DHT22;20128;45.582;5.298;2023-08-20T00:27:40;29.20;52.30
33827;DHT22;20128;45.582;5.298;2023-08-20T00:30:08;29.00;52.50
33827;DHT22;20128;45.582;5.298;2023-08-20T00:32:34;29.00;52.80
33827;DHT22;20128;45.582;5.298;2023-08-20T00:35:00;29.00;52.60
33827;DHT22;20128;45.582;5.298;2023-08-20T00:37:28;29.00;52.60
33827;DHT22;20128;45.582;5.298;2023-08-20T00:39:54;29.00;52.40
33827;DHT22;20128;45.582;5.298;2023-08-20T00:42:19;29.00;52.50
33827;DHT22;20128;45.582;5.298;2023-08-20T00:44:45;29.00;52.50
33827;DHT22;20128;45.582;5.298;2023-08-20T00:47:14;29.00;52.50
33827;DHT22;20128;45.582;5.298;2023-08-20T00:49:41;28.90;52.60
33827;DHT22;20128;45.582;5.298;2023-08-20T00:52:08;28.90;53.50
33827;DHT22;20128;45.582;5.298;2023-08-20T00:54:35;28.80;53.10
33827;DHT22;20128;45.582;5.298;2023-08-20T00:57:01;28.50;53.80
33827;DHT22;20128;45.582;5.298;2023-08-20T00:59:29;28.30;54.20
33827;DHT22;20128;45.582;5.298;2023-08-20T01:01:55;28.10;55.00
33827;DHT22;20128;45.582;5.298;2023-08-20T01:04:21;27.90;55.40
33827;DHT22;20128;45.582;5.298;2023-08-20T01:09:49;27.60;55.90
33827;DHT22;20128;45.582;5.298;2023-08-20T01:12:17;27.50;55.90
33827;DHT22;20128;45.582;5.298;2023-08-20T01:14:44;27.50;56.40
33827;DHT22;20128;45.582;5.298;2023-08-20T01:17:10;27.70;56.10
33827;DHT22;20128;45.582;5.298;2023-08-20T01:19:36;27.80;55.70
33827;DHT22;20128;45.582;5.298;2023-08-20T01:30:20;28.10;55.30
33827;DHT22;20128;45.582;5.298;2023-08-20T01:32:49;28.00;55.30
33827;DHT22;20128;45.582;5.298;2023-08-20T01:35:16;28.10;55.50
33827;DHT22;20128;45.582;5.298;2023-08-20T01:37:42;28.00;55.70
33827;DHT22;20128;45.582;5.298;2023-08-20T01:40:08;27.70;56.00
33827;DHT22;20128;45.582;5.298;2023-08-20T01:42:39;27.60;56.60
33827;DHT22;20128;45.582;5.298;2023-08-20T01:45:06;27.30;57.00
33827;DHT22;20128;45.582;5.298;2023-08-20T01:47:35;27.20;57.60
33827;DHT22;20128;45.582;5.298;2023-08-20T01:50:01;27.10;57.80
33827;DHT22;20128;45.582;5.298;2023-08-20T01:52:27;27.00;58.00
33827;DHT22;20128;45.582;5.298;2023-08-20T01:54:55;27.10;57.90
33827;DHT22;20128;45.582;5.298;2023-08-20T01:57:20;27.00;58.00
33827;DHT22;20128;45.582;5.298;2023-08-20T01:59:47;27.10;57.80
33827;DHT22;20128;45.582;5.298;2023-08-20T02:02:13;27.20;57.70
33827;DHT22;20128;45.582;5.298;2023-08-20T02:04:39;27.30;57.50
33827;DHT22;20128;45.582;5.298;2023-08-20T02:07:04;27.20;57.80
33827;DHT22;20128;45.582;5.298;2023-08-20T02:09:30;27.10;58.50
33827;DHT22;20128;45.582;5.298;2023-08-20T02:11:56;26.60;59.60
33827;DHT22;20128;45.582;5.298;2023-08-20T02:14:21;26.40;60.60
33827;DHT22;20128;45.582;5.298;2023-08-20T02:16:47;26.40;61.20
33827;DHT22;20128;45.582;5.298;2023-08-20T02:19:13;26.30;61.10
33827;DHT22;20128;45.582;5.298;2023-08-20T02:21:40;26.40;61.00
33827;DHT22;20128;45.582;5.298;2023-08-20T02:24:06;26.10;61.60
33827;DHT22;20128;45.582;5.298;2023-08-20T02:26:32;25.70;62.50
33827;DHT22;20128;45.582;5.298;2023-08-20T02:28:57;25.70;62.70
33827;DHT22;20128;45.582;5.298;2023-08-20T02:31:23;25.90;62.10
33827;DHT22;20128;45.582;5.298;2023-08-20T02:33:49;26.10;61.40
33827;DHT22;20128;45.582;5.298;2023-08-20T02:36:15;26.40;60.90
33827;DHT22;20128;45.582;5.298;2023-08-20T02:38:40;26.50;60.30
33827;DHT22;20128;45.582;5.298;2023-08-20T02:41:06;26.70;60.00
33827;DHT22;20128;45.582;5.298;2023-08-20T02:43:32;26.80;59.50
33827;DHT22;20128;45.582;5.298;2023-08-20T02:45:58;26.90;59.20
33827;DHT22;20128;45.582;5.298;2023-08-20T02:48:23;27.00;59.00
33827;DHT22;20128;45.582;5.298;2023-08-20T02:50:53;27.00;58.80
33827;DHT22;20128;45.582;5.298;2023-08-20T02:53:20;26.90;58.60
33827;DHT22;20128;45.582;5.298;2023-08-20T02:55:45;26.90;58.50
33827;DHT22;20128;45.582;5.298;2023-08-20T02:58:11;26.90;58.50
33827;DHT22;20128;45.582;5.298;2023-08-20T03:00:37;26.90;58.40
33827;DHT22;20128;45.582;5.298;2023-08-20T03:03:03;27.00;58.40
33827;DHT22;20128;45.582;5.298;2023-08-20T03:05:32;27.00;58.40
33827;DHT22;20128;45.582;5.298;2023-08-20T03:07:57;27.00;58.30
33827;DHT22;20128;45.582;5.298;2023-08-20T03:10:24;27.00;58.30
33827;DHT22;20128;45.582;5.298;2023-08-20T03:12:49;27.00;58.30
33827;DHT22;20128;45.582;5.298;2023-08-20T03:15:15;27.00;58.40
33827;DHT22;20128;45.582;5.298;2023-08-20T03:17:40;27.00;58.50
33827;DHT22;20128;45.582;5.298;2023-08-20T03:20:07;27.00;58.60
33827;DHT22;20128;45.582;5.298;2023-08-20T03:22:33;27.00;58.60
33827;DHT22;20128;45.582;5.298;2023-08-20T03:24:58;27.00;59.40
33827;DHT22;20128;45.582;5.298;2023-08-20T03:27:24;27.00;58.90
33827;DHT22;20128;45.582;5.298;2023-08-20T03:29:51;26.90;59.60
33827;DHT22;20128;45.582;5.298;2023-08-20T03:32:17;26.90;59.00
33827;DHT22;20128;45.582;5.298;2023-08-20T03:34:43;26.90;59.00
33827;DHT22;20128;45.582;5.298;2023-08-20T03:37:08;26.80;58.90
33827;DHT22;20128;45.582;5.298;2023-08-20T03:39:34;26.90;59.00
33827;DHT22;20128;45.582;5.298;2023-08-20T03:42:00;26.90;59.20
33827;DHT22;20128;45.582;5.298;2023-08-20T03:44:25;26.70;59.60
33827;DHT22;20128;45.582;5.298;2023-08-20T03:46:51;26.30;61.10
33827;DHT22;20128;45.582;5.298;2023-08-20T03:49:17;25.80;62.90
33827;DHT22;20128;45.582;5.298;2023-08-20T03:51:43;25.50;63.60
33827;DHT22;20128;45.582;5.298;2023-08-20T03:54:09;25.20;64.60
33827;DHT22;20128;45.582;5.298;2023-08-20T03:56:35;25.10;64.20
33827;DHT22;20128;45.582;5.298;2023-08-20T03:59:01;25.30;64.10
33827;DHT22;20128;45.582;5.298;2023-08-20T04:01:27;25.50;63.50
33827;DHT22;20128;45.582;5.298;2023-08-20T04:03:53;25.70;62.90
33827;DHT22;20128;45.582;5.298;2023-08-20T04:06:19;25.80;62.50
33827;DHT22;20128;45.582;5.298;2023-08-20T04:08:44;25.90;62.30
33827;DHT22;20128;45.582;5.298;2023-08-20T04:11:10;26.00;62.20
33827;DHT22;20128;45.582;5.298;2023-08-20T04:13:35;26.00;62.30
33827;DHT22;20128;45.582;5.298;2023-08-20T04:16:01;26.00;62.20
33827;DHT22;20128;45.582;5.298;2023-08-20T04:18:27;26.00;62.10
33827;DHT22;20128;45.582;5.298;2023-08-20T04:20:53;26.00;61.80
33827;DHT22;20128;45.582;5.298;2023-08-20T04:23:19;26.10;61.80
33827;DHT22;20128;45.582;5.298;2023-08-20T04:25:45;26.10;61.70
33827;DHT22;20128;45.582;5.298;2023-08-20T04:28:12;26.10;61.70
33827;DHT22;20128;45.582;5.298;2023-08-20T04:30:38;26.10;61.70
33827;DHT22;20128;45.582;5.298;2023-08-20T04:33:04;26.10;61.60
33827;DHT22;20128;45.582;5.298;2023-08-20T04:35:30;26.10;61.60
33827;DHT22;20128;45.582;5.298;2023-08-20T04:37:56;26.10;61.70
33827;DHT22;20128;45.582;5.298;2023-08-20T04:40:22;26.20;61.80
33827;DHT22;20128;45.582;5.298;2023-08-20T04:42:48;26.20;61.80
33827;DHT22;20128;45.582;5.298;2023-08-20T04:45:14;26.20;62.10
33827;DHT22;20128;45.582;5.298;2023-08-20T04:47:42;26.20;62.50
33827;DHT22;20128;45.582;5.298;2023-08-20T04:50:08;26.10;62.70
33827;DHT22;20128;45.582;5.298;2023-08-20T04:52:34;26.10;62.80
33827;DHT22;20128;45.582;5.298;2023-08-20T04:55:01;26.00;63.00
33827;DHT22;20128;45.582;5.298;2023-08-20T04:57:26;25.90;63.20
33827;DHT22;20128;45.582;5.298;2023-08-20T04:59:52;25.80;63.30
33827;DHT22;20128;45.582;5.298;2023-08-20T05:02:18;25.70;63.30
33827;DHT22;20128;45.582;5.298;2023-08-20T05:04:43;25.40;63.70
33827;DHT22;20128;45.582;5.298;2023-08-20T05:07:09;25.10;64.70
33827;DHT22;20128;45.582;5.298;2023-08-20T05:09:35;24.90;65.20
33827;DHT22;20128;45.582;5.298;2023-08-20T05:12:00;24.90;65.50
33827;DHT22;20128;45.582;5.298;2023-08-20T05:14:26;24.90;65.60
33827;DHT22;20128;45.582;5.298;2023-08-20T05:16:52;24.90;65.40
33827;DHT22;20128;45.582;5.298;2023-08-20T05:19:17;24.50;66.40
33827;DHT22;20128;45.582;5.298;2023-08-20T05:21:43;24.10;68.00
33827;DHT22;20128;45.582;5.298;2023-08-20T05:24:09;23.80;68.80
33827;DHT22;20128;45.582;5.298;2023-08-20T05:26:35;23.80;69.40
33827;DHT22;20128;45.582;5.298;2023-08-20T05:29:00;24.00;68.90
33827;DHT22;20128;45.582;5.298;2023-08-20T05:31:26;24.30;68.10
33827;DHT22;20128;45.582;5.298;2023-08-20T05:33:52;24.50;67.80
33827;DHT22;20128;45.582;5.298;2023-08-20T05:36:17;24.60;67.20
33827;DHT22;20128;45.582;5.298;2023-08-20T05:38:43;24.70;66.90
33827;DHT22;20128;45.582;5.298;2023-08-20T05:41:09;24.80;66.80
33827;DHT22;20128;45.582;5.298;2023-08-20T05:43:35;24.90;66.70
33827;DHT22;20128;45.582;5.298;2023-08-20T05:46:02;25.00;66.60
33827;DHT22;20128;45.582;5.298;2023-08-20T05:48:28;25.10;66.60
33827;DHT22;20128;45.582;5.298;2023-08-20T05:50:53;25.10;66.50
33827;DHT22;20128;45.582;5.298;2023-08-20T05:53:19;25.20;66.60
33827;DHT22;20128;45.582;5.298;2023-08-20T05:55:45;25.20;66.60
33827;DHT22;20128;45.582;5.298;2023-08-20T05:58:11;25.20;66.60
33827;DHT22;20128;45.582;5.298;2023-08-20T06:00:36;25.10;66.80
33827;DHT22;20128;45.582;5.298;2023-08-20T06:03:02;25.10;66.80
33827;DHT22;20128;45.582;5.298;2023-08-20T06:05:28;25.10;66.90
33827;DHT22;20128;45.582;5.298;2023-08-20T06:07:53;25.20;67.10
33827;DHT22;20128;45.582;5.298;2023-08-20T06:10:19;25.10;66.80
33827;DHT22;20128;45.582;5.298;2023-08-20T06:12:45;25.20;67.00
33827;DHT22;20128;45.582;5.298;2023-08-20T06:15:10;25.20;66.90
33827;DHT22;20128;45.582;5.298;2023-08-20T06:17:36;25.20;66.80
33827;DHT22;20128;45.582;5.298;2023-08-20T06:20:01;25.30;66.80
33827;DHT22;20128;45.582;5.298;2023-08-20T06:22:30;25.30;66.70
33827;DHT22;20128;45.582;5.298;2023-08-20T06:24:57;25.30;66.60
33827;DHT22;20128;45.582;5.298;2023-08-20T06:27:23;25.40;66.90
33827;DHT22;20128;45.582;5.298;2023-08-20T06:29:48;25.40;66.90
33827;DHT22;20128;45.582;5.298;2023-08-20T06:32:14;25.40;66.80
33827;DHT22;20128;45.582;5.298;2023-08-20T06:34:40;25.50;67.00
33827;DHT22;20128;45.582;5.298;2023-08-20T06:37:05;25.50;66.80
33827;DHT22;20128;45.582;5.298;2023-08-20T06:39:31;25.60;67.10
33827;DHT22;20128;45.582;5.298;2023-08-20T06:41:57;25.70;67.00
33827;DHT22;20128;45.582;5.298;2023-08-20T06:44:22;25.80;66.90
33827;DHT22;20128;45.582;5.298;2023-08-20T06:46:48;25.90;66.90
33827;DHT22;20128;45.582;5.298;2023-08-20T06:49:13;25.90;66.80
33827;DHT22;20128;45.582;5.298;2023-08-20T06:51:39;26.00;67.00
33827;DHT22;20128;45.582;5.298;2023-08-20T06:54:05;26.00;67.00
33827;DHT22;20128;45.582;5.298;2023-08-20T06:56:33;26.10;67.30
33827;DHT22;20128;45.582;5.298;2023-08-20T06:59:00;26.20;67.40
33827;DHT22;20128;45.582;5.298;2023-08-20T07:01:26;26.30;67.60
33827;DHT22;20128;45.582;5.298;2023-08-20T07:03:51;26.40;67.80
33827;DHT22;20128;45.582;5.298;2023-08-20T07:06:17;26.40;67.70
33827;DHT22;20128;45.582;5.298;2023-08-20T07:08:44;26.50;67.50
33827;DHT22;20128;45.582;5.298;2023-08-20T07:11:10;26.60;67.50
33827;DHT22;20128;45.582;5.298;2023-08-20T07:13:36;26.70;67.90
33827;DHT22;20128;45.582;5.298;2023-08-20T07:16:02;26.80;68.00
33827;DHT22;20128;45.582;5.298;2023-08-20T07:18:28;26.90;67.80
33827;DHT22;20128;45.582;5.298;2023-08-20T07:20:55;27.00;67.90
33827;DHT22;20128;45.582;5.298;2023-08-20T07:23:21;27.00;67.90
33827;DHT22;20128;45.582;5.298;2023-08-20T07:25:47;27.10;68.00
33827;DHT22;20128;45.582;5.298;2023-08-20T07:28:13;27.10;68.00
33827;DHT22;20128;45.582;5.298;2023-08-20T07:30:39;27.10;67.90
33827;DHT22;20128;45.582;5.298;2023-08-20T07:33:06;27.20;68.00
33827;DHT22;20128;45.582;5.298;2023-08-20T07:35:33;27.20;68.10
33827;DHT22;20128;45.582;5.298;2023-08-20T07:37:58;27.30;68.70
33827;DHT22;20128;45.582;5.298;2023-08-20T07:40:24;27.30;68.70
33827;DHT22;20128;45.582;5.298;2023-08-20T07:42:51;27.40;68.90
33827;DHT22;20128;45.582;5.298;2023-08-20T07:45:17;27.40;69.10
33827;DHT22;20128;45.582;5.298;2023-08-20T07:47:42;27.40;69.00
33827;DHT22;20128;45.582;5.298;2023-08-20T07:50:08;27.50;69.20
33827;DHT22;20128;45.582;5.298;2023-08-20T07:52:34;27.50;69.30
33827;DHT22;20128;45.582;5.298;2023-08-20T07:55:00;27.50;69.20
33827;DHT22;20128;45.582;5.298;2023-08-20T07:57:25;27.50;69.40
33827;DHT22;20128;45.582;5.298;2023-08-20T07:59:51;27.60;69.40
33827;DHT22;20128;45.582;5.298;2023-08-20T08:02:17;27.70;69.40
33827;DHT22;20128;45.582;5.298;2023-08-20T08:04:43;27.70;69.20
33827;DHT22;20128;45.582;5.298;2023-08-20T08:07:09;27.80;69.10
33827;DHT22;20128;45.582;5.298;2023-08-20T08:09:35;27.90;69.20
33827;DHT22;20128;45.582;5.298;2023-08-20T08:12:01;28.00;68.80
33827;DHT22;20128;45.582;5.298;2023-08-20T08:14:27;28.00;68.60
33827;DHT22;20128;45.582;5.298;2023-08-20T08:16:53;28.10;68.60
33827;DHT22;20128;45.582;5.298;2023-08-20T08:19:19;28.20;68.60
33827;DHT22;20128;45.582;5.298;2023-08-20T08:21:46;28.30;68.20
33827;DHT22;20128;45.582;5.298;2023-08-20T08:24:12;28.40;68.00
33827;DHT22;20128;45.582;5.298;2023-08-20T08:26:38;28.40;67.80
33827;DHT22;20128;45.582;5.298;2023-08-20T08:29:04;28.50;67.80
33827;DHT22;20128;45.582;5.298;2023-08-20T08:31:30;28.50;67.70
33827;DHT22;20128;45.582;5.298;2023-08-20T08:33:56;28.60;67.40
33827;DHT22;20128;45.582;5.298;2023-08-20T08:36:21;28.70;67.60
33827;DHT22;20128;45.582;5.298;2023-08-20T08:38:50;28.80;66.80
33827;DHT22;20128;45.582;5.298;2023-08-20T08:41:16;28.90;66.50
33827;DHT22;20128;45.582;5.298;2023-08-20T08:43:42;28.90;66.20
33827;DHT22;20128;45.582;5.298;2023-08-20T08:46:13;28.90;66.30
33827;DHT22;20128;45.582;5.298;2023-08-20T08:48:46;29.00;65.90
33827;DHT22;20128;45.582;5.298;2023-08-20T08:51:13;29.20;65.70
33827;DHT22;20128;45.582;5.298;2023-08-20T08:53:39;29.30;65.50
33827;DHT22;20128;45.582;5.298;2023-08-20T08:56:07;29.40;65.00
33827;DHT22;20128;45.582;5.298;2023-08-20T08:58:33;29.50;64.50
33827;DHT22;20128;45.582;5.298;2023-08-20T09:00:58;29.60;64.20
33827;DHT22;20128;45.582;5.298;2023-08-20T09:03:24;29.70;64.00
33827;DHT22;20128;45.582;5.298;2023-08-20T09:05:54;29.80;63.90
33827;DHT22;20128;45.582;5.298;2023-08-20T09:08:22;29.90;63.70
33827;DHT22;20128;45.582;5.298;2023-08-20T09:10:51;30.00;63.70
33827;DHT22;20128;45.582;5.298;2023-08-20T09:13:17;30.10;63.30
33827;DHT22;20128;45.582;5.298;2023-08-20T09:15:44;30.30;62.80
33827;DHT22;20128;45.582;5.298;2023-08-20T09:18:10;30.40;62.20
33827;DHT22;20128;45.582;5.298;2023-08-20T09:20:36;30.50;61.10
33827;DHT22;20128;45.582;5.298;2023-08-20T09:23:02;30.60;60.80
33827;DHT22;20128;45.582;5.298;2023-08-20T09:25:28;30.70;60.60
33827;DHT22;20128;45.582;5.298;2023-08-20T09:27:54;30.80;60.60
33827;DHT22;20128;45.582;5.298;2023-08-20T09:30:20;30.90;60.40
33827;DHT22;20128;45.582;5.298;2023-08-20T09:32:47;31.00;59.50
33827;DHT22;20128;45.582;5.298;2023-08-20T09:35:27;31.10;59.00
33827;DHT22;20128;45.582;5.298;2023-08-20T09:37:59;31.20;58.20
33827;DHT22;20128;45.582;5.298;2023-08-20T09:40:26;31.40;58.40
33827;DHT22;20128;45.582;5.298;2023-08-20T09:42:52;31.50;57.80
33827;DHT22;20128;45.582;5.298;2023-08-20T09:45:20;31.70;57.20
33827;DHT22;20128;45.582;5.298;2023-08-20T09:47:48;31.80;57.10
33827;DHT22;20128;45.582;5.298;2023-08-20T09:50:17;32.00;57.40
33827;DHT22;20128;45.582;5.298;2023-08-20T09:52:58;32.10;57.50
33827;DHT22;20128;45.582;5.298;2023-08-20T09:55:28;32.20;57.30
33827;DHT22;20128;45.582;5.298;2023-08-20T09:57:55;32.30;56.80
33827;DHT22;20128;45.582;5.298;2023-08-20T10:00:22;32.40;56.50
33827;DHT22;20128;45.582;5.298;2023-08-20T10:02:48;32.50;56.40
33827;DHT22;20128;45.582;5.298;2023-08-20T10:05:14;32.70;56.20
33827;DHT22;20128;45.582;5.298;2023-08-20T10:07:42;32.70;55.80
33827;DHT22;20128;45.582;5.298;2023-08-20T10:10:09;32.90;55.60
33827;DHT22;20128;45.582;5.298;2023-08-20T10:12:40;33.00;55.50
33827;DHT22;20128;45.582;5.298;2023-08-20T10:15:08;33.10;54.80
33827;DHT22;20128;45.582;5.298;2023-08-20T10:17:34;33.20;54.30
33827;DHT22;20128;45.582;5.298;2023-08-20T10:20:02;33.30;54.20
33827;DHT22;20128;45.582;5.298;2023-08-20T10:22:35;33.40;54.10
33827;DHT22;20128;45.582;5.298;2023-08-20T10:25:01;33.60;54.20
33827;DHT22;20128;45.582;5.298;2023-08-20T10:27:35;33.60;53.70
33827;DHT22;20128;45.582;5.298;2023-08-20T10:30:02;33.80;53.40
33827;DHT22;20128;45.582;5.298;2023-08-20T10:32:53;33.90;53.10
33827;DHT22;20128;45.582;5.298;2023-08-20T10:35:30;33.90;52.90
33827;DHT22;20128;45.582;5.298;2023-08-20T10:38:14;34.00;52.60
33827;DHT22;20128;45.582;5.298;2023-08-20T10:40:59;34.00;52.40
33827;DHT22;20128;45.582;5.298;2023-08-20T10:43:32;34.20;52.70
33827;DHT22;20128;45.582;5.298;2023-08-20T10:46:02;34.30;52.00
33827;DHT22;20128;45.582;5.298;2023-08-20T10:48:29;34.30;51.70
33827;DHT22;20128;45.582;5.298;2023-08-20T10:50:55;34.40;51.80
33827;DHT22;20128;45.582;5.298;2023-08-20T10:53:22;34.50;51.90
33827;DHT22;20128;45.582;5.298;2023-08-20T10:55:50;34.50;51.90
33827;DHT22;20128;45.582;5.298;2023-08-20T10:58:17;34.50;51.80
33827;DHT22;20128;45.582;5.298;2023-08-20T11:00:42;34.60;51.30
33827;DHT22;20128;45.582;5.298;2023-08-20T11:03:08;34.60;51.40
33827;DHT22;20128;45.582;5.298;2023-08-20T11:05:35;34.60;51.60
33827;DHT22;20128;45.582;5.298;2023-08-20T11:08:01;34.70;51.70
33827;DHT22;20128;45.582;5.298;2023-08-20T11:10:29;34.80;50.70
33827;DHT22;20128;45.582;5.298;2023-08-20T11:12:54;34.90;50.30
33827;DHT22;20128;45.582;5.298;2023-08-20T11:15:20;34.90;50.50
33827;DHT22;20128;45.582;5.298;2023-08-20T11:17:47;34.90;50.20
33827;DHT22;20128;45.582;5.298;2023-08-20T11:20:16;35.00;50.60
33827;DHT22;20128;45.582;5.298;2023-08-20T11:22:42;35.10;50.60
33827;DHT22;20128;45.582;5.298;2023-08-20T11:25:11;35.20;50.40
33827;DHT22;20128;45.582;5.298;2023-08-20T11:27:43;35.20;49.70
33827;DHT22;20128;45.582;5.298;2023-08-20T11:30:10;35.30;49.70
33827;DHT22;20128;45.582;5.298;2023-08-20T11:32:37;35.30;49.50
33827;DHT22;20128;45.582;5.298;2023-08-20T11:35:04;35.30;49.30
33827;DHT22;20128;45.582;5.298;2023-08-20T11:37:30;35.40;49.10
33827;DHT22;20128;45.582;5.298;2023-08-20T11:39:56;35.40;48.90
33827;DHT22;20128;45.582;5.298;2023-08-20T11:42:22;35.50;48.80
33827;DHT22;20128;45.582;5.298;2023-08-20T11:44:49;35.50;48.90
33827;DHT22;20128;45.582;5.298;2023-08-20T11:47:18;35.40;49.30
33827;DHT22;20128;45.582;5.298;2023-08-20T11:49:44;35.50;49.90
33827;DHT22;20128;45.582;5.298;2023-08-20T11:52:10;35.60;49.00
33827;DHT22;20128;45.582;5.298;2023-08-20T11:54:38;35.60;49.00
33827;DHT22;20128;45.582;5.298;2023-08-20T11:57:05;35.70;49.00
33827;DHT22;20128;45.582;5.298;2023-08-20T11:59:31;35.70;48.30
33827;DHT22;20128;45.582;5.298;2023-08-20T12:01:58;35.70;48.50
33827;DHT22;20128;45.582;5.298;2023-08-20T12:04:28;35.70;48.70
33827;DHT22;20128;45.582;5.298;2023-08-20T12:07:14;35.70;48.80
33827;DHT22;20128;45.582;5.298;2023-08-20T12:09:40;35.70;48.80
33827;DHT22;20128;45.582;5.298;2023-08-20T12:12:07;35.70;48.50
33827;DHT22;20128;45.582;5.298;2023-08-20T12:14:33;35.50;48.50
33827;DHT22;20128;45.582;5.298;2023-08-20T12:16:59;35.50;48.60
33827;DHT22;20128;45.582;5.298;2023-08-20T12:19:25;35.40;48.40
33827;DHT22;20128;45.582;5.298;2023-08-20T12:21:51;35.40;48.50
33827;DHT22;20128;45.582;5.298;2023-08-20T12:24:17;35.30;48.60
33827;DHT22;20128;45.582;5.298;2023-08-20T12:26:45;35.20;47.80
33827;DHT22;20128;45.582;5.298;2023-08-20T12:29:10;35.20;48.20
33827;DHT22;20128;45.582;5.298;2023-08-20T12:31:36;35.10;47.60
33827;DHT22;20128;45.582;5.298;2023-08-20T12:34:02;35.10;48.00
33827;DHT22;20128;45.582;5.298;2023-08-20T12:36:29;35.10;48.20
33827;DHT22;20128;45.582;5.298;2023-08-20T12:38:55;35.00;47.90
33827;DHT22;20128;45.582;5.298;2023-08-20T12:41:21;35.00;47.80
33827;DHT22;20128;45.582;5.298;2023-08-20T12:43:47;35.10;47.60
33827;DHT22;20128;45.582;5.298;2023-08-20T12:46:12;35.10;47.50
33827;DHT22;20128;45.582;5.298;2023-08-20T12:48:39;35.10;47.50
33827;DHT22;20128;45.582;5.298;2023-08-20T12:51:05;35.10;47.20
33827;DHT22;20128;45.582;5.298;2023-08-20T12:53:31;35.10;47.10
33827;DHT22;20128;45.582;5.298;2023-08-20T12:55:57;35.20;46.60
33827;DHT22;20128;45.582;5.298;2023-08-20T12:58:22;35.20;46.70
33827;DHT22;20128;45.582;5.298;2023-08-20T13:00:49;35.20;46.50
33827;DHT22;20128;45.582;5.298;2023-08-20T13:03:16;35.20;46.40
33827;DHT22;20128;45.582;5.298;2023-08-20T13:05:42;35.30;46.10
33827;DHT22;20128;45.582;5.298;2023-08-20T13:08:08;35.30;45.40
33827;DHT22;20128;45.582;5.298;2023-08-20T13:10:34;35.40;45.60
33827;DHT22;20128;45.582;5.298;2023-08-20T13:13:03;35.50;46.00
33827;DHT22;20128;45.582;5.298;2023-08-20T13:15:29;35.50;45.60
33827;DHT22;20128;45.582;5.298;2023-08-20T13:17:55;35.60;45.40
33827;DHT22;20128;45.582;5.298;2023-08-20T13:20:21;35.70;45.10
33827;DHT22;20128;45.582;5.298;2023-08-20T13:22:49;35.80;44.60
33827;DHT22;20128;45.582;5.298;2023-08-20T13:25:15;35.80;44.40
33827;DHT22;20128;45.582;5.298;2023-08-20T13:27:41;35.90;44.30
33827;DHT22;20128;45.582;5.298;2023-08-20T13:30:07;35.90;44.00
33827;DHT22;20128;45.582;5.298;2023-08-20T13:32:34;36.00;43.80
33827;DHT22;20128;45.582;5.298;2023-08-20T13:35:00;36.10;44.00
33827;DHT22;20128;45.582;5.298;2023-08-20T13:37:25;36.30;44.20
33827;DHT22;20128;45.582;5.298;2023-08-20T13:39:51;36.40;43.90
33827;DHT22;20128;45.582;5.298;2023-08-20T13:42:17;36.50;43.50
33827;DHT22;20128;45.582;5.298;2023-08-20T13:44:42;36.60;43.50
33827;DHT22;20128;45.582;5.298;2023-08-20T13:47:08;36.70;43.30
33827;DHT22;20128;45.582;5.298;2023-08-20T13:49:34;36.80;43.00
33827;DHT22;20128;45.582;5.298;2023-08-20T13:52:00;36.80;42.80
33827;DHT22;20128;45.582;5.298;2023-08-20T13:54:25;36.90;42.70
33827;DHT22;20128;45.582;5.298;2023-08-20T13:56:51;37.00;42.20
33827;DHT22;20128;45.582;5.298;2023-08-20T13:59:17;37.10;42.10
33827;DHT22;20128;45.582;5.298;2023-08-20T14:01:42;37.30;41.70
33827;DHT22;20128;45.582;5.298;2023-08-20T14:04:08;37.30;41.50
33827;DHT22;20128;45.582;5.298;2023-08-20T14:06:34;37.40;41.20
33827;DHT22;20128;45.582;5.298;2023-08-20T14:08:59;37.40;41.50
33827;DHT22;20128;45.582;5.298;2023-08-20T14:11:25;37.50;41.50
33827;DHT22;20128;45.582;5.298;2023-08-20T14:13:51;37.50;41.10
33827;DHT22;20128;45.582;5.298;2023-08-20T14:16:16;37.60;41.00
33827;DHT22;20128;45.582;5.298;2023-08-20T14:18:42;37.60;40.50
33827;DHT22;20128;45.582;5.298;2023-08-20T14:21:08;37.80;40.30
33827;DHT22;20128;45.582;5.298;2023-08-20T14:23:33;37.80;40.50
33827;DHT22;20128;45.582;5.298;2023-08-20T14:26:00;37.80;40.10
33827;DHT22;20128;45.582;5.298;2023-08-20T14:28:26;37.90;40.00
33827;DHT22;20128;45.582;5.298;2023-08-20T14:30:51;37.90;39.70
33827;DHT22;20128;45.582;5.298;2023-08-20T14:33:19;37.90;39.40
33827;DHT22;20128;45.582;5.298;2023-08-20T14:35:46;38.00;38.90
33827;DHT22;20128;45.582;5.298;2023-08-20T14:38:11;38.10;38.30
33827;DHT22;20128;45.582;5.298;2023-08-20T14:40:40;38.00;37.60
33827;DHT22;20128;45.582;5.298;2023-08-20T14:43:09;38.00;37.80
33827;DHT22;20128;45.582;5.298;2023-08-20T14:45:35;38.00;37.80
33827;DHT22;20128;45.582;5.298;2023-08-20T14:48:01;38.10;37.80
33827;DHT22;20128;45.582;5.298;2023-08-20T14:50:28;38.20;37.80
33827;DHT22;20128;45.582;5.298;2023-08-20T14:52:54;38.20;37.70
33827;DHT22;20128;45.582;5.298;2023-08-20T14:55:19;38.30;37.50
33827;DHT22;20128;45.582;5.298;2023-08-20T14:57:45;38.20;37.40
33827;DHT22;20128;45.582;5.298;2023-08-20T15:00:13;38.30;37.40
33827;DHT22;20128;45.582;5.298;2023-08-20T15:02:42;38.30;37.60
33827;DHT22;20128;45.582;5.298;2023-08-20T15:05:09;38.30;38.00
33827;DHT22;20128;45.582;5.298;2023-08-20T15:07:35;38.40;38.00
33827;DHT22;20128;45.582;5.298;2023-08-20T15:10:01;38.40;37.20
33827;DHT22;20128;45.582;5.298;2023-08-20T15:12:27;38.40;37.30
33827;DHT22;20128;45.582;5.298;2023-08-20T15:14:53;38.40;37.10
33827;DHT22;20128;45.582;5.298;2023-08-20T15:17:19;38.40;37.10
33827;DHT22;20128;45.582;5.298;2023-08-20T15:19:44;38.30;37.20
33827;DHT22;20128;45.582;5.298;2023-08-20T15:22:10;38.30;37.30
33827;DHT22;20128;45.582;5.298;2023-08-20T15:24:35;38.20;37.40
33827;DHT22;20128;45.582;5.298;2023-08-20T15:27:01;38.20;37.30
33827;DHT22;20128;45.582;5.298;2023-08-20T15:29:28;38.20;37.50
33827;DHT22;20128;45.582;5.298;2023-08-20T15:31:54;38.10;37.40
33827;DHT22;20128;45.582;5.298;2023-08-20T15:34:19;38.00;37.50
33827;DHT22;20128;45.582;5.298;2023-08-20T15:36:45;38.00;37.80